Time;durP1;ratioP1;P1;durP2;ratioP2;P2;SDS_P1;SDS_P2;PMS_P1;PMS_P2;Temp;Humidity;BMP_temperature;BMP_pressure;BME280_temperature;BME280_humidity;BME280_pressure;Samples;Min_cycle;Max_cycle;Signal;HPM_P1;HPM_P2
2022/07/12 00:04:33;;;;;;;2.95;2.38;;;;;;;12.12;77.24;100610.06;30989504;28;97178;-61
2022/07/12 00:19:33;;;;;;;5.27;2.03;;;;;;;12.16;77.29;100611.38;30988660;28;97183;-61
2022/07/12 00:34:33;;;;;;;3.00;1.60;;;;;;;12.10;77.04;100612.91;30986155;28;96745;-62
2022/07/12 00:49:34;;;;;;;3.60;1.70;;;;;;;12.16;77.06;100625.56;30952213;28;97652;-61
2022/07/12 01:04:35;;;;;;;4.57;1.83;;;;;;;12.28;76.91;100630.56;30858033;28;96916;-60
2022/07/12 01:19:37;;;;;;;1.93;1.50;;;;;;;12.28;77.02;100644.75;30866762;28;96837;-61
2022/07/12 01:34:37;;;;;;;1.70;1.20;;;;;;;12.22;76.83;100641.91;30856505;28;96715;-60
2022/07/12 01:49:38;;;;;;;3.45;1.40;;;;;;;12.16;76.43;100649.59;30855106;28;97062;-63
2022/07/12 02:04:38;;;;;;;4.45;1.75;;;;;;;12.11;76.24;100641.28;30854790;28;97524;-60
2022/07/12 02:19:38;;;;;;;2.42;1.60;;;;;;;11.89;76.37;100648.13;30854134;28;97288;-60
2022/07/12 02:34:39;;;;;;;2.65;1.67;;;;;;;11.72;76.09;100663.28;30852566;28;97145;-60
2022/07/12 02:49:39;;;;;;;3.08;1.83;;;;;;;11.50;76.71;100644.25;30869173;28;96786;-61
2022/07/12 03:04:40;;;;;;;4.13;2.05;;;;;;;11.43;76.39;100647.75;30872009;28;96667;-60
2022/07/12 03:19:41;;;;;;;4.83;2.40;;;;;;;11.39;76.82;100655.25;30870687;28;96659;-61
2022/07/12 03:34:41;;;;;;;3.92;1.85;;;;;;;11.38;76.43;100661.56;30866592;28;96795;-60
2022/07/12 03:49:41;;;;;;;2.60;1.80;;;;;;;11.64;77.14;100672.13;30865263;28;96737;-60
2022/07/12 04:04:42;;;;;;;6.40;1.88;;;;;;;12.55;76.73;100673.91;30889486;28;97020;-60
2022/07/12 04:19:42;;;;;;;5.75;1.80;;;;;;;13.39;75.16;100676.91;30988202;28;97429;-61
2022/07/12 04:34:42;;;;;;;4.03;2.10;;;;;;;14.04;73.87;100685.47;30865934;28;97266;-61
2022/07/12 04:49:43;;;;;;;8.13;1.80;;;;;;;14.65;72.54;100679.19;30857620;28;97069;-61
2022/07/12 05:04:44;;;;;;;4.63;1.80;;;;;;;14.80;70.81;100680.00;30858632;28;96838;-61
2022/07/12 05:19:44;;;;;;;4.60;1.60;;;;;;;15.14;70.45;100675.91;30857112;28;96775;-61
2022/07/12 05:34:44;;;;;;;3.78;1.45;;;;;;;15.52;69.14;100678.38;30854127;28;108392;-61
2022/07/12 05:49:45;;;;;;;5.93;1.75;;;;;;;15.65;68.21;100669.66;30854271;28;96722;-61
2022/07/12 06:04:45;;;;;;;6.13;1.80;;;;;;;15.88;67.74;100656.03;30851585;28;97128;-61
2022/07/12 06:19:45;;;;;;;10.65;2.08;;;;;;;16.27;66.69;100669.97;30853336;28;96679;-61
2022/07/12 06:34:46;;;;;;;2.50;1.45;;;;;;;17.02;66.37;100666.69;30852097;28;97032;-61
2022/07/12 06:49:46;;;;;;;3.28;1.17;;;;;;;17.83;64.93;100649.66;30850439;28;96889;-61
2022/07/12 07:04:46;;;;;;;2.63;0.90;;;;;;;18.68;61.91;100640.81;30848305;28;96832;-61
2022/07/12 07:19:47;;;;;;;4.03;0.80;;;;;;;19.30;58.52;100640.38;30847986;28;99809;-61
2022/07/12 07:34:47;;;;;;;1.98;0.80;;;;;;;20.02;55.40;100637.34;30860911;28;96834;-61
2022/07/12 07:49:47;;;;;;;1.85;0.82;;;;;;;20.70;52.58;100637.53;30864474;28;96928;-62
2022/07/12 08:04:48;;;;;;;1.02;0.52;;;;;;;21.54;49.76;100626.84;30864694;28;96694;-60
2022/07/12 08:19:48;;;;;;;1.63;0.63;;;;;;;22.72;46.43;100625.16;30863276;28;96750;-62
2022/07/12 08:34:48;;;;;;;2.40;1.00;;;;;;;24.11;42.30;100630.34;30862416;28;96740;-61
2022/07/12 08:50:10;;;;;;;3.00;0.55;;;;;;;24.38;38.73;100630.44;30860881;28;96788;-61
2022/07/12 09:05:11;;;;;;;1.50;0.50;;;;;;;24.63;36.25;100637.31;30860775;28;97171;-61
2022/07/12 09:20:13;;;;;;;1.83;0.60;;;;;;;25.54;35.07;100633.16;30859256;28;96777;-61
2022/07/12 09:50:35;;;;;;;5.73;1.00;;;;;;;26.61;32.64;100631.38;30855837;28;97064;-61
2022/07/12 10:05:40;;;;;;;15.10;1.37;;;;;;;26.98;31.77;100627.72;30854879;28;97282;-62
2022/07/12 10:20:44;;;;;;;3.30;0.40;;;;;;;26.82;30.90;100637.81;30852103;28;96728;-62
2022/07/12 10:36:02;;;;;;;2.30;0.53;;;;;;;25.84;31.64;100635.28;30851450;28;97698;-61
2022/07/12 10:51:14;;;;;;;1.17;0.50;;;;;;;25.08;32.80;100633.50;30851339;28;98016;-61
2022/07/12 11:06:17;;;;;;;1.30;0.57;;;;;;;26.95;31.88;100620.88;30863020;28;97356;-72
2022/07/12 11:21:17;;;;;;;1.57;0.70;;;;;;;26.92;31.71;100615.13;30870103;28;96727;-62
2022/07/12 11:36:19;;;;;;;1.88;0.60;;;;;;;27.17;30.85;100603.41;30916256;28;97491;-61
2022/07/12 11:51:19;;;;;;;1.00;0.50;;;;;;;26.35;32.05;100621.19;30919096;28;97300;-61
2022/07/12 12:06:19;;;;;;;3.33;0.60;;;;;;;26.72;32.39;100599.50;30926224;28;96783;-61
2022/07/12 12:21:25;;;;;;;1.35;0.43;;;;;;;26.91;31.35;100570.56;30985361;28;96806;-60
2022/07/12 12:36:29;;;;;;;0.50;0.40;;;;;;;26.64;30.72;100571.56;30980111;28;97559;-65
2022/07/12 12:51:29;;;;;;;1.37;0.40;;;;;;;27.06;29.84;100549.81;30970450;28;97407;-62
2022/07/12 13:06:29;;;;;;;1.10;0.50;;;;;;;27.01;29.97;100548.72;30878228;28;98562;-61
2022/07/12 13:21:30;;;;;;;0.93;0.40;;;;;;;27.05;29.39;100537.25;30960605;28;106602;-60
2022/07/12 13:36:30;;;;;;;1.73;0.68;;;;;;;27.56;28.38;100536.44;30956258;28;106463;-61
2022/07/12 13:51:30;;;;;;;2.40;0.50;;;;;;;27.09;28.22;100538.34;30954860;28;96915;-61
2022/07/12 14:06:31;;;;;;;1.50;0.93;;;;;;;26.96;27.18;100523.31;30965187;28;97391;-64
2022/07/12 14:21:32;;;;;;;3.20;0.73;;;;;;;26.30;28.33;100531.03;30964610;28;96833;-60
2022/07/12 14:36:32;;;;;;;0.68;0.40;;;;;;;26.64;27.56;100508.75;30973734;28;96960;-62
2022/07/12 14:51:33;;;;;;;2.28;0.45;;;;;;;26.71;27.96;100510.41;31002716;28;96844;-62
2022/07/12 15:06:33;;;;;;;0.40;0.40;;;;;;;26.84;27.62;100477.09;30997461;28;97410;-62
2022/07/12 15:21:35;;;;;;;1.50;0.45;;;;;;;26.74;27.67;100472.44;31007178;28;97915;-62
2022/07/12 15:36:35;;;;;;;2.33;0.50;;;;;;;26.05;27.88;100476.31;30999959;28;97015;-64
2022/07/12 16:06:55;;;;;;;3.77;0.50;;;;;;;24.90;29.87;100473.88;30975130;28;97158;-62
2022/07/12 16:21:56;;;;;;;2.87;0.60;;;;;;;24.67;30.27;100461.41;30973103;28;96957;-63
2022/07/12 16:36:56;;;;;;;1.20;0.43;;;;;;;24.59;29.79;100451.78;30970324;28;97577;-62
2022/07/12 16:51:57;;;;;;;2.55;0.80;;;;;;;24.37;30.19;100448.28;30967454;28;97135;-62
2022/07/12 17:06:58;;;;;;;2.70;0.85;;;;;;;24.11;30.80;100461.59;30969656;28;97477;-62
2022/07/12 17:21:58;;;;;;;1.03;0.60;;;;;;;23.83;31.23;100449.81;30970964;28;96793;-63
2022/07/12 17:36:59;;;;;;;;;;;;;;;23.43;31.91;100448.19;30932272;28;97392;-62
2022/07/12 17:51:59;;;;;;;1.13;0.60;;;;;;;23.06;32.71;100462.25;30898302;28;98864;-72
2022/07/12 18:07:00;;;;;;;3.20;0.77;;;;;;;22.65;33.75;100463.19;30891994;28;97230;-63
2022/07/12 18:22:00;;;;;;;1.20;0.60;;;;;;;22.30;34.34;100460.63;30911943;28;98273;-61
2022/07/12 18:37:00;;;;;;;0.77;0.50;;;;;;;21.85;34.93;100462.16;30947145;28;97216;-61
2022/07/12 18:52:01;;;;;;;2.23;0.63;;;;;;;21.43;35.06;100478.53;30889416;28;97183;-60
2022/07/12 19:07:01;;;;;;;2.87;0.80;;;;;;;20.86;36.10;100470.91;30958703;28;99036;-67
2022/07/12 19:22:02;;;;;;;3.30;0.73;;;;;;;20.46;36.15;100481.22;30966543;28;97874;-61
2022/07/12 19:37:04;;;;;;;1.70;0.70;;;;;;;20.09;36.77;100484.00;30980962;28;97380;-61
2022/07/12 19:52:04;;;;;;;3.33;0.90;;;;;;;19.83;37.18;100495.09;30973319;28;97071;-60
2022/07/12 20:07:04;;;;;;;6.10;1.40;;;;;;;19.59;37.59;100495.72;30979040;28;97682;-61
2022/07/12 20:22:05;;;;;;;3.80;1.30;;;;;;;19.50;38.12;100504.31;30911334;28;97798;-61
2022/07/12 20:37:06;;;;;;;1.92;1.00;;;;;;;19.55;38.42;100502.59;30953650;28;97486;-61
2022/07/12 20:52:06;;;;;;;8.07;0.80;;;;;;;19.53;38.91;100487.66;30983498;28;97296;-59
2022/07/12 21:07:07;;;;;;;3.42;1.10;;;;;;;19.16;39.74;100499.19;30984675;28;97379;-60
2022/07/12 21:22:07;;;;;;;3.78;1.83;;;;;;;18.74;41.22;100504.22;30982597;28;96731;-61
2022/07/12 21:37:08;;;;;;;6.90;2.78;;;;;;;18.44;42.45;100502.09;30980047;28;96735;-60
2022/07/12 21:52:08;;;;;;;3.10;1.10;;;;;;;18.15;43.35;100504.28;30978871;28;100629;-60
2022/07/12 22:07:09;;;;;;;3.47;1.27;;;;;;;17.81;44.37;100506.22;30979199;28;96690;-59
2022/07/12 22:22:09;;;;;;;3.78;1.52;;;;;;;17.53;45.19;100523.44;30977693;28;96708;-60
2022/07/12 22:37:09;;;;;;;4.38;1.50;;;;;;;17.36;45.92;100538.34;30973731;28;98545;-60
2022/07/12 22:52:09;;;;;;;3.65;1.70;;;;;;;17.19;46.51;100546.00;30973632;28;102138;-60
2022/07/12 23:07:10;;;;;;;4.80;1.30;;;;;;;16.98;47.44;100550.53;30994929;28;96692;-60
2022/07/12 23:22:10;;;;;;;3.22;1.30;;;;;;;16.82;47.94;100550.88;30994907;28;96855;-61
2022/07/12 23:37:11;;;;;;;2.78;1.23;;;;;;;16.66;48.75;100560.97;30993392;28;96951;-60
2022/07/12 23:52:11;;;;;;;2.08;1.20;;;;;;;16.49;49.44;100557.78;30992407;28;97354;-60
